createdAt,value
2018-06-20T00:01:23.379Z,98618.58
2018-06-20T00:03:50.917Z,98619.21
2018-06-20T00:06:18.481Z,98621.89
2018-06-20T00:08:50.687Z,98622.66
2018-06-20T00:11:18.994Z,98619.34
2018-06-20T00:13:46.664Z,98612.32
2018-06-20T00:16:14.251Z,98616.53
2018-06-20T00:18:41.831Z,98610.28
2018-06-20T00:21:09.384Z,98617.94
2018-06-20T00:23:36.937Z,98613.09
2018-06-20T00:26:04.488Z,98607.98
2018-06-20T00:28:32.029Z,98608.75
2018-06-20T00:30:59.697Z,98603.53
2018-06-20T00:33:27.240Z,98605.17
2018-06-20T00:35:54.766Z,98604.41
2018-06-20T00:38:22.390Z,98596.38
2018-06-20T00:40:49.965Z,98598.79
2018-06-20T00:43:17.474Z,98601.99
2018-06-20T00:45:45.009Z,98610.78
2018-06-20T00:48:12.537Z,98602.86
2018-06-20T00:50:40.086Z,98602.73
2018-06-20T00:53:07.618Z,98607.61
2018-06-20T00:55:46.302Z,98609.11
2018-06-20T00:58:13.814Z,98612.45
2018-06-20T01:00:41.385Z,98606.97
2018-06-20T01:03:08.962Z,98606.98
2018-06-20T01:05:36.604Z,98608.48
2018-06-20T01:08:04.382Z,98607.21
2018-06-20T01:10:31.918Z,98606.44
2018-06-20T01:12:59.479Z,98610.28
2018-06-20T01:15:27.003Z,98613.86
2018-06-20T01:17:54.522Z,98612.82
2018-06-20T01:20:22.098Z,98606.34
2018-06-20T01:22:49.676Z,98612.72
2018-06-20T01:25:17.216Z,98607.98
2018-06-20T01:27:44.754Z,98601.35
2018-06-20T01:30:12.335Z,98597.91
2018-06-20T01:32:39.872Z,98600.95
2018-06-20T01:35:07.426Z,98603.89
2018-06-20T01:37:35.002Z,98599.05
2018-06-20T01:40:02.536Z,98597.91
2018-06-20T01:42:30.244Z,98606.06
2018-06-20T01:44:57.862Z,98604.66
2018-06-20T01:47:25.587Z,98601.98
2018-06-20T01:49:53.292Z,98601.07
2018-06-20T01:52:20.869Z,98602.61
2018-06-20T01:54:48.387Z,98603.88
2018-06-20T01:57:15.905Z,98603.50
2018-06-20T01:59:43.460Z,98600.19
2018-06-20T02:02:10.987Z,98592.00
2018-06-20T02:04:38.511Z,98596.08
2018-06-20T02:07:06.275Z,98599.66
2018-06-20T02:09:33.800Z,98600.56
2018-06-20T02:12:01.395Z,98591.23
2018-06-20T02:14:28.931Z,98589.95
2018-06-20T02:16:56.458Z,98592.77
2018-06-20T02:19:24.099Z,98595.07
2018-06-20T02:21:51.650Z,98596.47
2018-06-20T02:24:19.159Z,98595.97
2018-06-20T02:26:46.686Z,98596.61
2018-06-20T02:29:14.235Z,98593.80
2018-06-20T02:31:41.750Z,98598.65
2018-06-20T02:34:09.294Z,98597.87
2018-06-20T02:36:36.892Z,98597.24
2018-06-20T02:39:06.607Z,98601.70
2018-06-20T02:41:34.626Z,98593.52
2018-06-20T02:44:02.316Z,98595.83
2018-06-20T02:46:29.874Z,98596.33
2018-06-20T02:48:57.389Z,98591.22
2018-06-20T02:51:25.005Z,98595.32
2018-06-20T02:53:52.526Z,98595.69
2018-06-20T02:56:20.047Z,98594.92
2018-06-20T02:58:47.606Z,98594.69
2018-06-20T03:01:15.130Z,98589.30
2018-06-20T03:03:42.645Z,98590.57
2018-06-20T03:06:10.194Z,98592.61
2018-06-20T03:08:37.702Z,98590.55
2018-06-20T03:11:05.359Z,98595.94
2018-06-20T03:13:32.931Z,98591.84
2018-06-20T03:16:00.443Z,98589.27
2018-06-20T03:18:28.044Z,98594.66
2018-06-20T03:20:55.582Z,98589.55
2018-06-20T03:23:23.126Z,98590.80
2018-06-20T03:25:50.658Z,98592.97
2018-06-20T03:28:18.204Z,98590.66
2018-06-20T03:30:45.764Z,98597.17
2018-06-20T03:33:13.283Z,98601.91
2018-06-20T03:35:40.814Z,98604.34
2018-06-20T03:38:08.351Z,98597.44
2018-06-20T03:40:35.891Z,98600.41
2018-06-20T03:43:03.518Z,98598.59
2018-06-20T03:45:31.022Z,98600.39
2018-06-20T03:47:58.543Z,98596.94
2018-06-20T03:50:26.099Z,98595.00
2018-06-20T03:52:53.627Z,98592.08
2018-06-20T03:55:21.165Z,98598.58
2018-06-20T03:57:48.718Z,98597.33
2018-06-20T04:00:16.251Z,98602.55
2018-06-20T04:02:44.082Z,98600.39
2018-06-20T04:05:12.004Z,98597.86
2018-06-20T04:07:39.655Z,98598.23
2018-06-20T04:10:07.158Z,98596.59
2018-06-20T04:12:34.703Z,98598.90
2018-06-20T04:15:02.229Z,98590.08
2018-06-20T04:17:29.758Z,98593.92
2018-06-20T04:19:57.311Z,98593.53
2018-06-20T04:22:24.826Z,98592.63
2018-06-20T04:24:52.351Z,98585.60
2018-06-20T04:27:19.925Z,98585.09
2018-06-20T04:29:47.439Z,98581.52
2018-06-20T04:32:14.970Z,98586.77
2018-06-20T04:34:42.545Z,98592.11
2018-06-20T04:37:10.078Z,98595.31
2018-06-20T04:39:37.591Z,98595.54
2018-06-20T04:42:05.170Z,98594.92
2018-06-20T04:44:32.711Z,98595.17
2018-06-20T04:47:00.242Z,98586.47
2018-06-20T04:49:27.786Z,98588.92
2018-06-20T04:51:55.330Z,98587.73
2018-06-20T04:54:22.840Z,98591.72
2018-06-20T04:56:50.382Z,98583.78
2018-06-20T04:59:17.910Z,98589.91
2018-06-20T05:01:45.419Z,98586.08
2018-06-20T05:04:13.021Z,98585.56
2018-06-20T05:06:40.536Z,98588.89
2018-06-20T05:09:13.638Z,98588.87
2018-06-20T05:11:41.156Z,98584.76
2018-06-20T05:14:08.723Z,98584.48
2018-06-20T05:16:36.493Z,98578.98
2018-06-20T05:19:04.025Z,98586.76
2018-06-20T05:21:31.551Z,98582.52
2018-06-20T05:23:59.752Z,98588.98
2018-06-20T05:26:27.270Z,98585.25
2018-06-20T05:28:54.791Z,98575.76
2018-06-20T05:31:22.387Z,98578.86
2018-06-20T05:33:49.902Z,98583.55
2018-06-20T05:36:17.420Z,98581.72
2018-06-20T05:38:44.991Z,98582.22
2018-06-20T05:41:12.501Z,98578.09
2018-06-20T05:43:40.051Z,98580.01
2018-06-20T05:46:07.631Z,98579.13
2018-06-20T05:48:35.210Z,98580.67
2018-06-20T05:51:02.766Z,98574.78
2018-06-20T05:53:30.765Z,98575.66
2018-06-20T05:55:58.287Z,98572.46
2018-06-20T05:58:25.824Z,98572.06
2018-06-20T06:00:53.636Z,98570.75
2018-06-20T06:03:21.197Z,98572.16
2018-06-20T06:06:00.052Z,98568.98
2018-06-20T06:08:27.579Z,98568.98
2018-06-20T06:10:55.122Z,98572.98
2018-06-20T06:13:22.675Z,98574.22
2018-06-20T06:15:50.212Z,98577.69
2018-06-20T06:18:17.748Z,98572.14
2018-06-20T06:20:46.172Z,98572.98
2018-06-20T06:23:20.532Z,98577.49
2018-06-20T06:25:48.106Z,98575.69
2018-06-20T06:28:15.677Z,98580.41
2018-06-20T06:30:43.304Z,98570.64
2018-06-20T06:33:10.796Z,98575.47
2018-06-20T06:35:38.323Z,98575.93
2018-06-20T06:38:05.986Z,98572.61
2018-06-20T06:40:33.555Z,98565.38
2018-06-20T06:43:01.105Z,98571.12
2018-06-20T06:45:28.663Z,98566.11
2018-06-20T06:47:56.205Z,98562.53
2018-06-20T06:50:23.735Z,98568.37
2018-06-20T06:52:51.322Z,98557.96
2018-06-20T06:55:18.895Z,98565.26
2018-06-20T06:57:46.434Z,98558.95
2018-06-20T07:00:14.028Z,98560.39
2018-06-20T07:02:41.608Z,98557.58
2018-06-20T07:05:09.179Z,98556.47
2018-06-20T07:07:36.710Z,98556.58
2018-06-20T07:10:04.333Z,98559.53
2018-06-20T07:12:31.859Z,98556.23
2018-06-20T07:14:59.390Z,98557.22
2018-06-20T07:17:26.957Z,98554.04
2018-06-20T07:19:54.502Z,98544.41
2018-06-20T07:22:22.040Z,98539.04
2018-06-20T07:24:49.617Z,98544.84
2018-06-20T07:27:17.153Z,98544.84
2018-06-20T07:29:44.708Z,98542.80
2018-06-20T07:32:12.286Z,98534.73
2018-06-20T07:34:39.840Z,98538.11
2018-06-20T07:37:07.358Z,98537.31
2018-06-20T07:39:35.019Z,98527.25
2018-06-20T07:42:02.595Z,98528.39
2018-06-20T07:44:30.307Z,98534.69
2018-06-20T07:46:57.862Z,98527.98
2018-06-20T07:49:25.425Z,98521.54
2018-06-20T07:51:52.935Z,98525.94
2018-06-20T07:54:20.539Z,98524.89
2018-06-20T07:56:48.114Z,98516.85
2018-06-20T07:59:15.858Z,98514.42
2018-06-20T08:02:00.341Z,98513.40
2018-06-20T08:04:33.418Z,98514.16
2018-06-20T08:07:06.547Z,98515.20
2018-06-20T08:09:39.736Z,98506.53
2018-06-20T08:12:12.995Z,98509.16
2018-06-20T08:14:46.156Z,98510.69
2018-06-20T08:17:19.375Z,98505.53
2018-06-20T08:19:52.260Z,98506.03
2018-06-20T08:22:20.854Z,98497.80
2018-06-20T08:24:57.690Z,98498.16
2018-06-20T08:27:25.247Z,98489.80
2018-06-20T08:29:52.846Z,98492.66
2018-06-20T08:32:20.455Z,98486.72
2018-06-20T08:34:48.058Z,98489.98
2018-06-20T08:37:15.646Z,98486.27
2018-06-20T08:39:43.262Z,98487.48
2018-06-20T08:42:10.820Z,98483.17
2018-06-20T08:44:38.387Z,98483.16
2018-06-20T08:47:06.328Z,98485.04
2018-06-20T08:49:33.905Z,98487.72
2018-06-20T08:52:01.486Z,98482.20
2018-06-20T08:54:29.152Z,98481.59
2018-06-20T08:56:56.711Z,98478.37
2018-06-20T08:59:24.258Z,98480.02
2018-06-20T09:01:51.774Z,98485.15
2018-06-20T09:04:24.958Z,98478.40
2018-06-20T09:06:58.026Z,98476.44
2018-06-20T09:09:31.066Z,98476.97
2018-06-20T09:12:04.095Z,98474.42
2018-06-20T09:14:36.146Z,98474.86
2018-06-20T09:17:09.350Z,98471.44
2018-06-20T09:19:44.593Z,98465.84
2018-06-20T09:22:12.243Z,98462.17
2018-06-20T09:24:39.779Z,98456.48
2018-06-20T09:27:07.326Z,98454.29
2018-06-20T09:29:34.862Z,98451.20
2018-06-20T09:32:02.423Z,98452.68
2018-06-20T09:34:30.016Z,98448.45
2018-06-20T09:36:57.533Z,98443.42
2018-06-20T09:39:25.082Z,98444.59
2018-06-20T09:41:52.664Z,98436.80
2018-06-20T09:44:20.258Z,98437.73
2018-06-20T09:46:47.820Z,98440.17
2018-06-20T09:49:15.400Z,98432.91
2018-06-20T09:51:42.918Z,98429.62
2018-06-20T09:54:10.493Z,98426.00
2018-06-20T09:56:38.095Z,98422.63
2018-06-20T09:59:11.154Z,98425.98
2018-06-20T10:01:44.280Z,98428.17
2018-06-20T10:04:17.464Z,98419.88
2018-06-20T10:06:50.668Z,98413.39
2018-06-20T10:09:23.820Z,98412.03
2018-06-20T10:11:57.042Z,98409.54
2018-06-20T10:14:24.613Z,98406.41
2018-06-20T10:16:52.138Z,98405.10
2018-06-20T10:19:19.703Z,98400.55
2018-06-20T10:21:47.254Z,98403.05
2018-06-20T10:24:14.866Z,98400.47
2018-06-20T10:26:42.430Z,98399.63
2018-06-20T10:29:10.022Z,98411.30
2018-06-20T10:31:37.565Z,98404.66
2018-06-20T10:34:05.197Z,98395.36
2018-06-20T10:36:32.758Z,98393.05
2018-06-20T10:39:00.301Z,98389.53
2018-06-20T10:41:32.367Z,98376.45
2018-06-20T10:43:59.978Z,98384.89
2018-06-20T10:47:34.539Z,98376.97
2018-06-20T10:50:02.120Z,98388.11
2018-06-20T10:52:29.655Z,98379.41
2018-06-20T10:54:57.224Z,98379.88
2018-06-20T10:57:30.179Z,98370.30
2018-06-20T11:00:03.536Z,98361.66
2018-06-20T11:02:36.632Z,98363.09
2018-06-20T11:05:09.794Z,98369.66
2018-06-20T11:07:42.867Z,98359.24
2018-06-20T11:10:15.979Z,98357.94
2018-06-20T11:12:49.091Z,98351.60
2018-06-20T11:15:16.720Z,98357.40
2018-06-20T11:17:44.298Z,98349.01
2018-06-20T11:20:18.445Z,98341.07
2018-06-20T11:22:47.124Z,98346.23
2018-06-20T11:25:14.663Z,98337.35
2018-06-20T11:27:42.293Z,98333.31
2018-06-20T11:30:09.824Z,98325.59
2018-06-20T11:32:37.349Z,98324.14
2018-06-20T11:35:05.242Z,98323.59
2018-06-20T11:37:32.767Z,98318.63
2018-06-20T11:40:00.330Z,98321.47
2018-06-20T11:42:27.919Z,98319.56
2018-06-20T11:44:55.518Z,98309.71
2018-06-20T11:47:28.578Z,98306.78
2018-06-20T11:49:56.137Z,98306.19
2018-06-20T11:52:29.335Z,98295.81
2018-06-20T11:55:02.374Z,98291.77
2018-06-20T11:57:29.960Z,98289.48
2018-06-20T12:00:03.005Z,98286.30
2018-06-20T12:02:36.017Z,98289.51
2018-06-20T12:05:09.054Z,98287.21
2018-06-20T12:07:42.170Z,98278.00
2018-06-20T12:10:15.358Z,98264.13
2018-06-20T12:12:48.528Z,98268.33
2018-06-20T12:15:21.611Z,98265.92
2018-06-20T12:17:54.815Z,98261.86
2018-06-20T12:20:27.992Z,98257.77
2018-06-20T12:23:01.235Z,98246.27
2018-06-20T12:25:34.347Z,98248.42
2018-06-20T12:28:07.571Z,98247.91
2018-06-20T12:30:40.680Z,98250.09
2018-06-20T12:33:13.898Z,98249.41
2018-06-20T12:35:47.087Z,98241.58
2018-06-20T12:38:20.283Z,98236.83
2018-06-20T12:40:53.460Z,98236.13
2018-06-20T12:43:26.670Z,98227.78
2018-06-20T12:45:59.863Z,98229.12
2018-06-20T12:48:27.523Z,98216.38
2018-06-20T12:50:55.073Z,98219.66
2018-06-20T12:53:22.667Z,98221.69
2018-06-20T12:55:50.252Z,98223.67
2018-06-20T12:58:17.882Z,98200.37
2018-06-20T13:00:45.332Z,98216.52
2018-06-20T13:03:12.923Z,98207.09
2018-06-20T13:05:40.453Z,98199.84
2018-06-20T13:08:07.971Z,98196.45
2018-06-20T13:10:35.555Z,98197.99
2018-06-20T13:13:03.096Z,98197.89
2018-06-20T13:15:30.647Z,98194.64
2018-06-20T13:17:58.212Z,98180.49
2018-06-20T13:20:25.738Z,98183.84
2018-06-20T13:22:53.267Z,98182.06
2018-06-20T13:25:20.875Z,98176.88
2018-06-20T13:27:48.416Z,98173.77
2018-06-20T13:30:16.295Z,98173.00
2018-06-20T13:32:49.418Z,98173.77
2018-06-20T13:35:22.643Z,98163.30
2018-06-20T13:37:55.895Z,98164.56
2018-06-20T13:40:29.122Z,98160.16
2018-06-20T13:43:02.291Z,98161.95
2018-06-20T13:45:35.522Z,98156.75
2018-06-20T13:48:08.752Z,98160.25
2018-06-20T13:50:36.350Z,98149.20
2018-06-20T13:53:03.927Z,98156.52
2018-06-20T13:55:31.522Z,98148.47
2018-06-20T13:57:59.073Z,98152.84
2018-06-20T14:00:26.758Z,98147.05
2018-06-20T14:02:55.328Z,98135.74
2018-06-20T14:05:22.847Z,98136.64
2018-06-20T14:07:50.404Z,98134.27
2018-06-20T14:10:18.066Z,98120.98
2018-06-20T14:12:45.552Z,98130.27
2018-06-20T14:15:13.103Z,98129.34
2018-06-20T14:17:40.670Z,98126.59
2018-06-20T14:20:13.940Z,98126.09
2018-06-20T14:22:41.551Z,98124.70
2018-06-20T14:25:09.107Z,98121.40
2018-06-20T14:27:36.638Z,98122.09
2018-06-20T14:30:04.320Z,98119.39
2018-06-20T14:32:37.487Z,98109.69
2018-06-20T14:35:10.606Z,98103.36
2018-06-20T14:37:43.690Z,98102.70
2018-06-20T14:40:16.815Z,98104.83
2018-06-20T14:42:49.818Z,98103.23
2018-06-20T14:45:22.862Z,98098.37
2018-06-20T14:47:50.418Z,98100.87
2018-06-20T14:50:17.960Z,98098.62
2018-06-20T14:52:45.642Z,98093.13
2018-06-20T14:55:13.167Z,98089.48
2018-06-20T14:57:40.716Z,98090.13
2018-06-20T15:00:08.528Z,98084.38
2018-06-20T15:02:37.677Z,98084.39
2018-06-20T15:05:06.068Z,98080.56
2018-06-20T15:07:35.043Z,98074.16
2018-06-20T15:10:04.079Z,98080.31
2018-06-20T15:12:32.209Z,98075.63
2018-06-20T15:14:59.900Z,98074.31
2018-06-20T15:17:29.775Z,98070.78
2018-06-20T15:19:57.515Z,98064.89
2018-06-20T15:22:25.133Z,98058.06
2018-06-20T15:24:52.681Z,98064.00
2018-06-20T15:27:26.037Z,98061.80
2018-06-20T15:29:59.193Z,98058.43
2018-06-20T15:32:32.331Z,98054.20
2018-06-20T15:35:05.468Z,98048.84
2018-06-20T15:38:43.595Z,98049.57
2018-06-20T15:41:11.280Z,98037.80
2018-06-20T15:43:38.818Z,98033.70
2018-06-20T15:46:06.455Z,98037.99
2018-06-20T15:48:34.394Z,98034.87
2018-06-20T15:51:02.025Z,98024.70
2018-06-20T15:53:29.835Z,98033.41
2018-06-20T15:55:57.571Z,98025.98
2018-06-20T15:58:25.223Z,98029.08
2018-06-20T16:00:52.842Z,98029.42
2018-06-20T16:03:21.059Z,98026.84
2018-06-20T16:05:48.608Z,98017.88
2018-06-20T16:08:16.308Z,98019.18
2018-06-20T16:10:43.805Z,98022.94
2018-06-20T16:13:11.376Z,98016.63
2018-06-20T16:15:38.971Z,98013.98
2018-06-20T16:18:06.526Z,98009.55
2018-06-20T16:20:39.760Z,98014.95
2018-06-20T16:23:12.772Z,98008.50
2018-06-20T16:25:45.829Z,98013.17
2018-06-20T16:28:19.031Z,98008.42
2018-06-20T16:30:46.856Z,98000.29
2018-06-20T16:33:14.412Z,98002.03
2018-06-20T16:35:42.026Z,98002.70
2018-06-20T16:38:09.632Z,97999.62
2018-06-20T16:40:37.203Z,97992.03
2018-06-20T16:43:04.771Z,97991.48
2018-06-20T16:45:32.398Z,97995.25
2018-06-20T16:47:59.998Z,97987.74
2018-06-20T16:50:27.516Z,97993.41
2018-06-20T16:52:55.091Z,97984.73
2018-06-20T16:55:22.679Z,97986.89
2018-06-20T16:57:50.271Z,97985.12
2018-06-20T17:00:17.847Z,97987.25
2018-06-20T17:02:45.466Z,97984.83
2018-06-20T17:05:13.495Z,97979.95
2018-06-20T17:07:41.249Z,97980.86
2018-06-20T17:10:08.834Z,97978.91
2018-06-20T17:12:42.077Z,97975.73
2018-06-20T17:15:15.183Z,97969.81
2018-06-20T17:17:48.150Z,97973.36
2018-06-20T17:20:21.263Z,97971.13
2018-06-20T17:22:54.431Z,97966.89
2018-06-20T17:25:29.428Z,97960.23
2018-06-20T17:27:57.051Z,97961.98
2018-06-20T17:30:24.786Z,97956.43
2018-06-20T17:32:52.434Z,97955.08
2018-06-20T17:35:20.118Z,97948.92
2018-06-20T17:37:47.719Z,97947.02
2018-06-20T17:40:15.305Z,97943.04
2018-06-20T17:42:42.902Z,97953.41
2018-06-20T17:45:10.509Z,97949.03
2018-06-20T17:47:38.083Z,97945.72
2018-06-20T17:50:06.929Z,97939.42
2018-06-20T17:52:34.607Z,97946.23
2018-06-20T17:55:02.207Z,97937.72
2018-06-20T17:57:29.774Z,97938.22
2018-06-20T17:59:57.307Z,97932.89
2018-06-20T18:02:24.826Z,97937.45
2018-06-20T18:04:57.947Z,97939.08
2018-06-20T18:07:31.125Z,97931.40
2018-06-20T18:10:04.296Z,97925.84
2018-06-20T18:13:03.991Z,97927.26
2018-06-20T18:15:37.407Z,97934.14
2018-06-20T18:18:05.758Z,97927.44
2018-06-20T18:20:33.522Z,97927.36
2018-06-20T18:23:01.419Z,97930.41
2018-06-20T18:25:29.175Z,97921.16
2018-06-20T18:27:56.999Z,97929.20
2018-06-20T18:30:24.865Z,97929.65
2018-06-20T18:32:52.497Z,97926.73
2018-06-20T18:35:20.266Z,97933.47
2018-06-20T18:37:47.902Z,97927.86
2018-06-20T18:40:15.658Z,97929.56
2018-06-20T18:42:43.369Z,97924.70
2018-06-20T18:45:11.259Z,97930.81
2018-06-20T18:47:44.442Z,97923.38
2018-06-20T18:50:12.201Z,97919.96
2018-06-20T18:52:39.834Z,97918.72
2018-06-20T18:55:07.842Z,97911.79
2018-06-20T18:57:41.392Z,97920.27
2018-06-20T19:00:14.697Z,97922.30
2018-06-20T19:02:47.905Z,97924.75
2018-06-20T19:05:21.143Z,97922.92
2018-06-20T19:07:54.457Z,97920.33
2018-06-20T19:10:22.185Z,97917.48
2018-06-20T19:12:49.908Z,97918.17
2018-06-20T19:15:17.690Z,97920.22
2018-06-20T19:17:45.404Z,97920.39
2018-06-20T19:20:13.232Z,97917.21
2018-06-20T19:22:41.010Z,97924.25
2018-06-20T19:25:08.799Z,97923.66
2018-06-20T19:27:36.498Z,97927.73
2018-06-20T19:30:04.396Z,97930.25
2018-06-20T19:32:32.492Z,97929.92
2018-06-20T19:35:00.282Z,97934.34
2018-06-20T19:37:28.103Z,97930.47
2018-06-20T19:39:55.825Z,97930.22
2018-06-20T19:42:24.778Z,97934.16
2018-06-20T19:44:52.595Z,97928.68
2018-06-20T19:47:20.412Z,97933.18
2018-06-20T19:49:48.197Z,97934.99
2018-06-20T19:52:15.941Z,97936.17
2018-06-20T19:54:43.630Z,97930.78
2018-06-20T19:57:11.347Z,97927.41
2018-06-20T19:59:39.122Z,97932.19
2018-06-20T20:02:06.694Z,97926.33
2018-06-20T20:04:34.398Z,97923.56
2018-06-20T20:07:01.993Z,97922.52
2018-06-20T20:09:29.580Z,97924.52
2018-06-20T20:11:57.229Z,97920.19
2018-06-20T20:14:24.994Z,97922.98
2018-06-20T20:16:52.828Z,97916.30
2018-06-20T20:19:20.463Z,97921.35
2018-06-20T20:21:48.065Z,97918.01
2018-06-20T20:24:15.804Z,97921.70
2018-06-20T20:26:43.364Z,97919.50
2018-06-20T20:29:10.953Z,97913.51
2018-06-20T20:31:38.726Z,97913.06
2018-06-20T20:34:06.287Z,97916.70
2018-06-20T20:36:34.039Z,97916.16
2018-06-20T20:39:02.057Z,97908.53
2018-06-20T20:41:29.655Z,97911.21
2018-06-20T20:43:57.363Z,97911.37
2018-06-20T20:46:24.871Z,97912.98
2018-06-20T20:48:52.493Z,97909.41
2018-06-20T20:51:20.610Z,97907.83
2018-06-20T20:53:48.202Z,97908.84
2018-06-20T20:56:15.734Z,97908.81
2018-06-20T20:58:43.360Z,97902.56
2018-06-20T21:01:10.891Z,97907.77
2018-06-20T21:03:38.465Z,97909.60
2018-06-20T21:06:06.086Z,97906.51
2018-06-20T21:08:33.590Z,97908.18
2018-06-20T21:11:01.122Z,97902.98
2018-06-20T21:13:28.717Z,97905.47
2018-06-20T21:15:56.278Z,97897.45
2018-06-20T21:18:23.801Z,97898.49
2018-06-20T21:20:51.491Z,97892.38
2018-06-20T21:23:19.216Z,97896.75
2018-06-20T21:25:46.763Z,97892.58
2018-06-20T21:28:14.418Z,97883.63
2018-06-20T21:30:41.963Z,97886.66
2018-06-20T21:33:09.502Z,97885.14
2018-06-20T21:35:37.099Z,97886.46
2018-06-20T21:38:06.019Z,97880.88
2018-06-20T21:40:33.719Z,97887.58
2018-06-20T21:43:01.280Z,97883.38
2018-06-20T21:45:28.848Z,97889.07
2018-06-20T21:47:56.423Z,97888.27
2018-06-20T21:50:24.016Z,97892.06
2018-06-20T21:52:51.805Z,97897.73
2018-06-20T21:55:19.355Z,97898.04
2018-06-20T21:57:46.891Z,97891.52
2018-06-20T22:00:14.422Z,97884.90
2018-06-20T22:02:41.946Z,97887.38
2018-06-20T22:05:09.605Z,97881.51
2018-06-20T22:07:37.596Z,97885.66
2018-06-20T22:10:05.557Z,97879.27
2018-06-20T22:12:33.283Z,97875.77
2018-06-20T22:15:01.376Z,97878.20
2018-06-20T22:17:28.987Z,97878.70
2018-06-20T22:19:56.619Z,97875.37
2018-06-20T22:22:24.415Z,97870.86
2018-06-20T22:24:53.146Z,97868.22
2018-06-20T22:27:21.020Z,97870.39
2018-06-20T22:29:48.576Z,97870.02
2018-06-20T22:32:16.124Z,97866.69
2018-06-20T22:34:43.869Z,97864.36
2018-06-20T22:37:11.436Z,97868.96
2018-06-20T22:39:38.974Z,97862.92
2018-06-20T22:42:06.523Z,97859.82
2018-06-20T22:44:34.034Z,97866.70
2018-06-20T22:47:01.624Z,97869.26
2018-06-20T22:49:29.211Z,97864.20
2018-06-20T22:51:56.726Z,97867.14
2018-06-20T22:54:24.358Z,97866.55
2018-06-20T22:56:51.965Z,97872.22
2018-06-20T22:59:19.491Z,97863.25
2018-06-20T23:01:47.013Z,97869.27
2018-06-20T23:04:14.548Z,97868.59
2018-06-20T23:06:42.060Z,97869.00
2018-06-20T23:09:10.425Z,97868.80
2018-06-20T23:11:43.492Z,97867.77
2018-06-20T23:14:11.114Z,97865.20
2018-06-20T23:16:38.846Z,97859.73
2018-06-20T23:19:06.735Z,97867.11
2018-06-20T23:21:34.278Z,97860.94
2018-06-20T23:24:01.798Z,97855.56
2018-06-20T23:26:29.366Z,97855.91
2018-06-20T23:28:57.174Z,97856.49
2018-06-20T23:31:24.674Z,97857.33
2018-06-20T23:33:52.322Z,97854.88
2018-06-20T23:36:19.867Z,97853.36
2018-06-20T23:38:47.397Z,97854.95
2018-06-20T23:41:14.959Z,97850.77
2018-06-20T23:43:43.104Z,97844.08
2018-06-20T23:46:10.654Z,97844.19
2018-06-20T23:48:38.234Z,97840.43
2018-06-20T23:51:05.883Z,97838.81
2018-06-20T23:53:33.426Z,97844.84
2018-06-20T23:56:00.990Z,97837.12
2018-06-20T23:58:28.547Z,97846.31
